sensor_id;sensor_type;location;lat;lon;timestamp;temperature;humidity
16140;DHT22;8175;49.326;12.690;2023-07-09T00:01:57;15.50;99.90
16140;DHT22;8175;49.326;12.690;2023-07-09T00:04:22;15.60;99.90
16140;DHT22;8175;49.326;12.690;2023-07-09T00:06:48;15.50;99.90
16140;DHT22;8175;49.326;12.690;2023-07-09T00:09:16;15.50;99.90
16140;DHT22;8175;49.326;12.690;2023-07-09T00:11:43;15.50;99.90
16140;DHT22;8175;49.326;12.690;2023-07-09T00:14:11;15.50;99.90
16140;DHT22;8175;49.326;12.690;2023-07-09T00:16:38;15.60;99.90
16140;DHT22;8175;49.326;12.690;2023-07-09T00:19:09;15.50;99.90
16140;DHT22;8175;49.326;12.690;2023-07-09T00:21:36;15.50;99.90
16140;DHT22;8175;49.326;12.690;2023-07-09T00:24:03;15.40;99.90
16140;DHT22;8175;49.326;12.690;2023-07-09T00:26:31;15.30;99.90
16140;DHT22;8175;49.326;12.690;2023-07-09T00:28:58;15.30;99.90
16140;DHT22;8175;49.326;12.690;2023-07-09T00:31:24;15.20;99.90
16140;DHT22;8175;49.326;12.690;2023-07-09T00:33:50;15.10;99.90
16140;DHT22;8175;49.326;12.690;2023-07-09T00:36:20;15.00;99.90
16140;DHT22;8175;49.326;12.690;2023-07-09T00:38:49;15.10;99.90
16140;DHT22;8175;49.326;12.690;2023-07-09T00:41:20;15.10;99.90
16140;DHT22;8175;49.326;12.690;2023-07-09T00:43:47;15.20;99.90
16140;DHT22;8175;49.326;12.690;2023-07-09T00:48:51;15.30;99.90
16140;DHT22;8175;49.326;12.690;2023-07-09T00:51:21;15.30;99.90
16140;DHT22;8175;49.326;12.690;2023-07-09T00:53:50;15.40;99.90
16140;DHT22;8175;49.326;12.690;2023-07-09T00:56:26;15.40;99.90
16140;DHT22;8175;49.326;12.690;2023-07-09T00:58:53;15.20;99.90
16140;DHT22;8175;49.326;12.690;2023-07-09T01:01:20;15.00;99.90
16140;DHT22;8175;49.326;12.690;2023-07-09T01:03:53;14.90;99.90
16140;DHT22;8175;49.326;12.690;2023-07-09T01:06:35;14.80;99.90
16140;DHT22;8175;49.326;12.690;2023-07-09T01:09:03;14.80;99.90
16140;DHT22;8175;49.326;12.690;2023-07-09T01:11:29;14.90;99.90
16140;DHT22;8175;49.326;12.690;2023-07-09T01:13:58;15.00;99.90
16140;DHT22;8175;49.326;12.690;2023-07-09T01:16:28;15.00;99.90
16140;DHT22;8175;49.326;12.690;2023-07-09T01:18:54;15.00;99.90
16140;DHT22;8175;49.326;12.690;2023-07-09T01:21:20;14.90;99.90
16140;DHT22;8175;49.326;12.690;2023-07-09T01:23:47;14.80;99.90
16140;DHT22;8175;49.326;12.690;2023-07-09T01:26:17;14.80;99.90
16140;DHT22;8175;49.326;12.690;2023-07-09T01:28:43;14.80;99.90
16140;DHT22;8175;49.326;12.690;2023-07-09T01:31:10;14.80;99.90
16140;DHT22;8175;49.326;12.690;2023-07-09T03:42:00;15.00;99.90
16140;DHT22;8175;49.326;12.690;2023-07-09T03:44:26;15.10;99.90
16140;DHT22;8175;49.326;12.690;2023-07-09T03:46:52;15.20;99.90
16140;DHT22;8175;49.326;12.690;2023-07-09T03:49:17;15.30;99.90
16140;DHT22;8175;49.326;12.690;2023-07-09T03:56:51;15.90;99.90
16140;DHT22;8175;49.326;12.690;2023-07-09T03:59:17;15.90;99.90
16140;DHT22;8175;49.326;12.690;2023-07-09T04:05:12;16.10;99.90
16140;DHT22;8175;49.326;12.690;2023-07-09T04:07:39;16.10;99.90
16140;DHT22;8175;49.326;12.690;2023-07-09T04:35:04;16.10;99.90
16140;DHT22;8175;49.326;12.690;2023-07-09T04:37:32;16.10;99.90
16140;DHT22;8175;49.326;12.690;2023-07-09T04:39:57;16.10;99.90
16140;DHT22;8175;49.326;12.690;2023-07-09T04:42:23;16.20;99.90
16140;DHT22;8175;49.326;12.690;2023-07-09T04:44:49;16.20;99.90
16140;DHT22;8175;49.326;12.690;2023-07-09T04:47:14;16.20;99.90
16140;DHT22;8175;49.326;12.690;2023-07-09T04:49:40;16.20;99.90
16140;DHT22;8175;49.326;12.690;2023-07-09T04:52:07;16.30;99.90
16140;DHT22;8175;49.326;12.690;2023-07-09T04:54:37;16.30;99.90
16140;DHT22;8175;49.326;12.690;2023-07-09T04:57:03;16.20;99.90
16140;DHT22;8175;49.326;12.690;2023-07-09T04:59:29;16.20;99.90
16140;DHT22;8175;49.326;12.690;2023-07-09T05:01:55;16.10;99.90
16140;DHT22;8175;49.326;12.690;2023-07-09T05:04:20;16.10;99.90
16140;DHT22;8175;49.326;12.690;2023-07-09T05:06:46;16.20;99.90
16140;DHT22;8175;49.326;12.690;2023-07-09T05:09:12;16.30;99.90
16140;DHT22;8175;49.326;12.690;2023-07-09T05:11:37;16.40;99.90
16140;DHT22;8175;49.326;12.690;2023-07-09T05:14:03;16.50;99.90
16140;DHT22;8175;49.326;12.690;2023-07-09T05:16:29;16.50;99.90
16140;DHT22;8175;49.326;12.690;2023-07-09T05:18:55;16.70;99.90
16140;DHT22;8175;49.326;12.690;2023-07-09T05:21:21;16.90;99.90
16140;DHT22;8175;49.326;12.690;2023-07-09T05:23:46;17.10;99.90
16140;DHT22;8175;49.326;12.690;2023-07-09T05:26:12;17.20;99.90
16140;DHT22;8175;49.326;12.690;2023-07-09T05:28:37;17.40;99.90
16140;DHT22;8175;49.326;12.690;2023-07-09T05:31:04;17.50;99.90
16140;DHT22;8175;49.326;12.690;2023-07-09T05:33:30;17.60;99.90
16140;DHT22;8175;49.326;12.690;2023-07-09T05:35:56;17.80;99.90
16140;DHT22;8175;49.326;12.690;2023-07-09T05:38:21;17.90;99.90
16140;DHT22;8175;49.326;12.690;2023-07-09T05:40:47;18.00;99.90
16140;DHT22;8175;49.326;12.690;2023-07-09T05:43:14;18.20;99.90
16140;DHT22;8175;49.326;12.690;2023-07-09T05:45:40;18.40;99.90
16140;DHT22;8175;49.326;12.690;2023-07-09T05:48:05;18.50;99.90
16140;DHT22;8175;49.326;12.690;2023-07-09T05:50:34;18.80;99.90
16140;DHT22;8175;49.326;12.690;2023-07-09T05:53:00;19.00;99.90
16140;DHT22;8175;49.326;12.690;2023-07-09T05:55:26;19.20;99.90
16140;DHT22;8175;49.326;12.690;2023-07-09T05:57:55;19.40;99.90
16140;DHT22;8175;49.326;12.690;2023-07-09T06:00:21;19.50;99.90
16140;DHT22;8175;49.326;12.690;2023-07-09T06:02:47;19.70;99.90
16140;DHT22;8175;49.326;12.690;2023-07-09T06:05:14;19.90;99.90
16140;DHT22;8175;49.326;12.690;2023-07-09T06:07:40;20.00;99.90
16140;DHT22;8175;49.326;12.690;2023-07-09T06:10:06;20.20;99.90
16140;DHT22;8175;49.326;12.690;2023-07-09T06:12:33;20.40;99.90
16140;DHT22;8175;49.326;12.690;2023-07-09T06:14:59;20.50;99.90
16140;DHT22;8175;49.326;12.690;2023-07-09T06:17:24;20.70;99.90
16140;DHT22;8175;49.326;12.690;2023-07-09T06:19:50;20.80;99.90
16140;DHT22;8175;49.326;12.690;2023-07-09T06:22:16;21.00;99.90
16140;DHT22;8175;49.326;12.690;2023-07-09T06:24:41;21.10;99.90
16140;DHT22;8175;49.326;12.690;2023-07-09T06:27:09;21.20;99.90
16140;DHT22;8175;49.326;12.690;2023-07-09T06:29:35;21.30;99.90
16140;DHT22;8175;49.326;12.690;2023-07-09T06:32:00;21.40;99.90
16140;DHT22;8175;49.326;12.690;2023-07-09T06:34:26;21.60;99.90
16140;DHT22;8175;49.326;12.690;2023-07-09T06:36:52;21.70;99.90
16140;DHT22;8175;49.326;12.690;2023-07-09T06:39:18;21.90;99.90
16140;DHT22;8175;49.326;12.690;2023-07-09T06:41:45;22.00;99.90
16140;DHT22;8175;49.326;12.690;2023-07-09T06:44:10;22.20;99.90
16140;DHT22;8175;49.326;12.690;2023-07-09T06:46:36;22.50;99.90
16140;DHT22;8175;49.326;12.690;2023-07-09T06:49:03;22.70;99.90
16140;DHT22;8175;49.326;12.690;2023-07-09T06:51:31;22.80;99.90
16140;DHT22;8175;49.326;12.690;2023-07-09T06:53:56;22.90;99.90
16140;DHT22;8175;49.326;12.690;2023-07-09T06:56:23;22.90;99.90
16140;DHT22;8175;49.326;12.690;2023-07-09T06:58:49;23.00;99.90
16140;DHT22;8175;49.326;12.690;2023-07-09T07:01:14;23.10;99.90
16140;DHT22;8175;49.326;12.690;2023-07-09T07:03:40;23.30;99.90
16140;DHT22;8175;49.326;12.690;2023-07-09T07:06:06;23.60;99.90
16140;DHT22;8175;49.326;12.690;2023-07-09T07:08:33;24.40;99.90
16140;DHT22;8175;49.326;12.690;2023-07-09T07:11:00;25.20;99.90
16140;DHT22;8175;49.326;12.690;2023-07-09T07:13:38;25.00;99.90
16140;DHT22;8175;49.326;12.690;2023-07-09T07:16:07;24.90;99.90
16140;DHT22;8175;49.326;12.690;2023-07-09T07:18:34;24.80;99.90
16140;DHT22;8175;49.326;12.690;2023-07-09T07:21:00;25.10;99.90
16140;DHT22;8175;49.326;12.690;2023-07-09T07:23:26;25.90;99.90
16140;DHT22;8175;49.326;12.690;2023-07-09T07:25:52;26.10;99.90
16140;DHT22;8175;49.326;12.690;2023-07-09T07:28:18;25.90;99.90
16140;DHT22;8175;49.326;12.690;2023-07-09T07:30:43;25.50;99.90
16140;DHT22;8175;49.326;12.690;2023-07-09T07:33:10;25.50;99.90
16140;DHT22;8175;49.326;12.690;2023-07-09T07:35:36;25.80;99.90
16140;DHT22;8175;49.326;12.690;2023-07-09T07:38:02;26.10;99.90
16140;DHT22;8175;49.326;12.690;2023-07-09T07:40:28;26.90;99.90
16140;DHT22;8175;49.326;12.690;2023-07-09T07:42:53;28.20;99.90
16140;DHT22;8175;49.326;12.690;2023-07-09T07:45:20;29.40;96.20
16140;DHT22;8175;49.326;12.690;2023-07-09T07:47:45;29.80;95.60
16140;DHT22;8175;49.326;12.690;2023-07-09T07:50:11;30.10;95.80
16140;DHT22;8175;49.326;12.690;2023-07-09T07:52:37;31.10;92.70
16140;DHT22;8175;49.326;12.690;2023-07-09T07:55:07;32.30;91.20
16140;DHT22;8175;49.326;12.690;2023-07-09T07:57:33;32.90;88.10
16140;DHT22;8175;49.326;12.690;2023-07-09T07:59:59;33.30;82.10
16140;DHT22;8175;49.326;12.690;2023-07-09T08:02:25;33.40;77.30
16140;DHT22;8175;49.326;12.690;2023-07-09T08:04:50;33.10;73.70
16140;DHT22;8175;49.326;12.690;2023-07-09T08:07:18;33.20;73.80
16140;DHT22;8175;49.326;12.690;2023-07-09T08:09:45;32.60;74.20
16140;DHT22;8175;49.326;12.690;2023-07-09T08:12:12;33.00;71.80
16140;DHT22;8175;49.326;12.690;2023-07-09T08:14:39;33.30;70.30
16140;DHT22;8175;49.326;12.690;2023-07-09T08:17:05;33.70;66.90
16140;DHT22;8175;49.326;12.690;2023-07-09T08:19:32;33.90;63.80
16140;DHT22;8175;49.326;12.690;2023-07-09T08:21:58;34.40;61.20
16140;DHT22;8175;49.326;12.690;2023-07-09T08:24:23;34.20;60.80
16140;DHT22;8175;49.326;12.690;2023-07-09T08:26:49;34.40;65.40
16140;DHT22;8175;49.326;12.690;2023-07-09T08:29:16;34.60;59.70
16140;DHT22;8175;49.326;12.690;2023-07-09T08:31:41;34.50;61.90
16140;DHT22;8175;49.326;12.690;2023-07-09T08:34:07;34.50;60.50
16140;DHT22;8175;49.326;12.690;2023-07-09T08:36:33;34.50;59.10
16140;DHT22;8175;49.326;12.690;2023-07-09T08:39:01;34.70;59.10
16140;DHT22;8175;49.326;12.690;2023-07-09T08:49:43;35.40;55.80
16140;DHT22;8175;49.326;12.690;2023-07-09T08:55:01;35.60;54.30
16140;DHT22;8175;49.326;12.690;2023-07-09T08:57:36;35.70;53.60
16140;DHT22;8175;49.326;12.690;2023-07-09T09:00:13;36.00;54.00
16140;DHT22;8175;49.326;12.690;2023-07-09T09:02:51;36.00;53.50
16140;DHT22;8175;49.326;12.690;2023-07-09T09:05:20;36.50;51.90
16140;DHT22;8175;49.326;12.690;2023-07-09T09:08:02;36.50;52.60
16140;DHT22;8175;49.326;12.690;2023-07-09T09:10:47;36.30;52.10
16140;DHT22;8175;49.326;12.690;2023-07-09T09:13:18;35.80;51.20
16140;DHT22;8175;49.326;12.690;2023-07-09T09:15:45;35.60;50.20
16140;DHT22;8175;49.326;12.690;2023-07-09T09:18:25;36.30;51.40
16140;DHT22;8175;49.326;12.690;2023-07-09T09:21:00;36.60;49.00
16140;DHT22;8175;49.326;12.690;2023-07-09T09:23:40;37.10;48.30
16140;DHT22;8175;49.326;12.690;2023-07-09T09:26:18;37.00;48.80
16140;DHT22;8175;49.326;12.690;2023-07-09T09:28:47;37.10;49.60
16140;DHT22;8175;49.326;12.690;2023-07-09T09:31:12;36.20;48.70
16140;DHT22;8175;49.326;12.690;2023-07-09T09:33:44;35.60;49.60
16140;DHT22;8175;49.326;12.690;2023-07-09T09:36:24;35.60;49.00
16140;DHT22;8175;49.326;12.690;2023-07-09T09:38:50;36.40;51.00
16140;DHT22;8175;49.326;12.690;2023-07-09T09:41:30;35.90;46.90
16140;DHT22;8175;49.326;12.690;2023-07-09T09:43:56;35.70;50.90
16140;DHT22;8175;49.326;12.690;2023-07-09T09:46:26;36.10;49.20
16140;DHT22;8175;49.326;12.690;2023-07-09T09:48:58;36.50;49.50
16140;DHT22;8175;49.326;12.690;2023-07-09T09:51:25;36.60;47.00
16140;DHT22;8175;49.326;12.690;2023-07-09T09:53:56;36.50;48.70
16140;DHT22;8175;49.326;12.690;2023-07-09T09:56:30;36.60;48.70
16140;DHT22;8175;49.326;12.690;2023-07-09T09:58:57;37.10;49.80
16140;DHT22;8175;49.326;12.690;2023-07-09T10:01:31;36.10;46.00
16140;DHT22;8175;49.326;12.690;2023-07-09T10:03:59;35.50;46.30
16140;DHT22;8175;49.326;12.690;2023-07-09T10:06:41;36.10;47.20
16140;DHT22;8175;49.326;12.690;2023-07-09T10:09:28;36.60;46.90
16140;DHT22;8175;49.326;12.690;2023-07-09T10:12:08;37.60;49.80
16140;DHT22;8175;49.326;12.690;2023-07-09T10:14:38;37.50;45.50
16140;DHT22;8175;49.326;12.690;2023-07-09T10:25:59;37.60;44.90
16140;DHT22;8175;49.326;12.690;2023-07-09T10:39:33;37.40;42.20
16140;DHT22;8175;49.326;12.690;2023-07-09T10:41:59;37.50;40.90
16140;DHT22;8175;49.326;12.690;2023-07-09T10:44:38;37.40;40.20
16140;DHT22;8175;49.326;12.690;2023-07-09T10:47:13;37.70;39.20
16140;DHT22;8175;49.326;12.690;2023-07-09T10:49:45;37.20;40.70
16140;DHT22;8175;49.326;12.690;2023-07-09T10:52:25;37.50;42.20
16140;DHT22;8175;49.326;12.690;2023-07-09T10:55:01;37.30;44.10
16140;DHT22;8175;49.326;12.690;2023-07-09T10:59:59;35.20;44.60
16140;DHT22;8175;49.326;12.690;2023-07-09T11:02:35;33.90;47.80
16140;DHT22;8175;49.326;12.690;2023-07-09T11:05:05;32.70;49.20
16140;DHT22;8175;49.326;12.690;2023-07-09T11:10:29;31.80;53.90
16140;DHT22;8175;49.326;12.690;2023-07-09T11:13:05;32.90;52.40
16140;DHT22;8175;49.326;12.690;2023-07-09T11:15:39;34.40;45.50
16140;DHT22;8175;49.326;12.690;2023-07-09T11:18:10;36.50;43.90
16140;DHT22;8175;49.326;12.690;2023-07-09T11:20:43;37.30;42.90
16140;DHT22;8175;49.326;12.690;2023-07-09T11:23:22;38.20;43.40
16140;DHT22;8175;49.326;12.690;2023-07-09T11:26:00;37.90;39.10
16140;DHT22;8175;49.326;12.690;2023-07-09T11:28:34;37.60;41.60
16140;DHT22;8175;49.326;12.690;2023-07-09T11:31:07;38.30;39.60
16140;DHT22;8175;49.326;12.690;2023-07-09T11:33:33;37.50;40.00
16140;DHT22;8175;49.326;12.690;2023-07-09T11:36:10;35.80;39.40
16140;DHT22;8175;49.326;12.690;2023-07-09T11:38:42;34.90;41.80
16140;DHT22;8175;49.326;12.690;2023-07-09T11:44:20;36.70;40.00
16140;DHT22;8175;49.326;12.690;2023-07-09T11:46:54;37.60;40.00
16140;DHT22;8175;49.326;12.690;2023-07-09T11:49:24;37.80;38.80
16140;DHT22;8175;49.326;12.690;2023-07-09T11:51:55;38.20;38.10
16140;DHT22;8175;49.326;12.690;2023-07-09T11:54:23;37.80;36.10
16140;DHT22;8175;49.326;12.690;2023-07-09T11:56:56;38.10;40.60
16140;DHT22;8175;49.326;12.690;2023-07-09T11:59:22;38.40;37.50
16140;DHT22;8175;49.326;12.690;2023-07-09T12:01:48;37.80;38.20
16140;DHT22;8175;49.326;12.690;2023-07-09T12:04:25;37.70;38.80
16140;DHT22;8175;49.326;12.690;2023-07-09T12:06:57;37.30;39.80
16140;DHT22;8175;49.326;12.690;2023-07-09T12:09:32;37.20;36.80
16140;DHT22;8175;49.326;12.690;2023-07-09T12:11:57;37.10;39.10
16140;DHT22;8175;49.326;12.690;2023-07-09T12:14:23;37.30;36.80
16140;DHT22;8175;49.326;12.690;2023-07-09T12:16:51;37.70;43.00
16140;DHT22;8175;49.326;12.690;2023-07-09T12:19:22;38.40;37.60
16140;DHT22;8175;49.326;12.690;2023-07-09T12:21:51;38.20;38.90
16140;DHT22;8175;49.326;12.690;2023-07-09T12:26:55;37.80;35.80
16140;DHT22;8175;49.326;12.690;2023-07-09T12:29:24;37.60;37.00
16140;DHT22;8175;49.326;12.690;2023-07-09T12:31:51;38.30;37.20
16140;DHT22;8175;49.326;12.690;2023-07-09T12:34:16;38.20;37.70
16140;DHT22;8175;49.326;12.690;2023-07-09T12:36:51;37.40;37.80
16140;DHT22;8175;49.326;12.690;2023-07-09T12:39:31;36.80;38.20
16140;DHT22;8175;49.326;12.690;2023-07-09T12:42:01;36.30;41.50
16140;DHT22;8175;49.326;12.690;2023-07-09T12:44:31;36.30;40.00
16140;DHT22;8175;49.326;12.690;2023-07-09T12:46:59;36.50;40.30
16140;DHT22;8175;49.326;12.690;2023-07-09T12:49:27;36.60;40.20
16140;DHT22;8175;49.326;12.690;2023-07-09T12:52:00;37.10;39.50
16140;DHT22;8175;49.326;12.690;2023-07-09T12:54:29;37.30;41.10
16140;DHT22;8175;49.326;12.690;2023-07-09T12:56:56;37.00;38.40
16140;DHT22;8175;49.326;12.690;2023-07-09T12:59:37;36.60;38.70
16140;DHT22;8175;49.326;12.690;2023-07-09T13:02:19;36.90;40.90
16140;DHT22;8175;49.326;12.690;2023-07-09T13:04:47;36.80;39.10
16140;DHT22;8175;49.326;12.690;2023-07-09T13:07:26;36.40;40.70
16140;DHT22;8175;49.326;12.690;2023-07-09T13:09:54;36.60;40.40
16140;DHT22;8175;49.326;12.690;2023-07-09T13:12:20;36.80;39.90
16140;DHT22;8175;49.326;12.690;2023-07-09T13:14:53;36.90;39.10
16140;DHT22;8175;49.326;12.690;2023-07-09T13:17:19;37.00;37.60
16140;DHT22;8175;49.326;12.690;2023-07-09T13:19:45;37.10;40.90
16140;DHT22;8175;49.326;12.690;2023-07-09T13:22:15;37.20;39.10
16140;DHT22;8175;49.326;12.690;2023-07-09T13:24:42;36.60;38.10
16140;DHT22;8175;49.326;12.690;2023-07-09T13:27:15;36.20;39.90
16140;DHT22;8175;49.326;12.690;2023-07-09T13:29:41;36.50;39.90
16140;DHT22;8175;49.326;12.690;2023-07-09T13:32:13;36.90;38.90
16140;DHT22;8175;49.326;12.690;2023-07-09T13:34:40;36.80;37.80
16140;DHT22;8175;49.326;12.690;2023-07-09T13:37:12;36.60;37.10
16140;DHT22;8175;49.326;12.690;2023-07-09T13:39:39;36.20;36.10
16140;DHT22;8175;49.326;12.690;2023-07-09T13:42:13;36.40;37.30
16140;DHT22;8175;49.326;12.690;2023-07-09T13:44:41;37.00;35.20
16140;DHT22;8175;49.326;12.690;2023-07-09T13:47:25;36.30;37.30
16140;DHT22;8175;49.326;12.690;2023-07-09T13:49:51;36.00;36.00
16140;DHT22;8175;49.326;12.690;2023-07-09T13:52:20;36.60;38.30
16140;DHT22;8175;49.326;12.690;2023-07-09T13:54:46;37.00;37.50
16140;DHT22;8175;49.326;12.690;2023-07-09T13:57:20;37.30;35.50
16140;DHT22;8175;49.326;12.690;2023-07-09T13:59:47;37.50;35.40
16140;DHT22;8175;49.326;12.690;2023-07-09T14:02:29;37.00;36.00
16140;DHT22;8175;49.326;12.690;2023-07-09T14:04:58;36.10;36.60
16140;DHT22;8175;49.326;12.690;2023-07-09T14:09:51;36.00;36.00
16140;DHT22;8175;49.326;12.690;2023-07-09T14:12:17;35.90;36.80
16140;DHT22;8175;49.326;12.690;2023-07-09T14:14:43;36.00;36.80
16140;DHT22;8175;49.326;12.690;2023-07-09T14:17:12;36.30;36.20
16140;DHT22;8175;49.326;12.690;2023-07-09T14:19:37;37.00;36.30
16140;DHT22;8175;49.326;12.690;2023-07-09T14:22:54;37.20;36.70
16140;DHT22;8175;49.326;12.690;2023-07-09T14:25:00;37.50;35.40
16140;DHT22;8175;49.326;12.690;2023-07-09T14:27:27;37.30;36.30
16140;DHT22;8175;49.326;12.690;2023-07-09T14:29:53;37.20;34.70
16140;DHT22;8175;49.326;12.690;2023-07-09T14:34:51;37.20;35.70
16140;DHT22;8175;49.326;12.690;2023-07-09T14:37:16;37.70;35.10
16140;DHT22;8175;49.326;12.690;2023-07-09T14:39:42;37.80;35.60
16140;DHT22;8175;49.326;12.690;2023-07-09T14:42:12;37.90;34.90
16140;DHT22;8175;49.326;12.690;2023-07-09T14:44:40;37.60;35.20
16140;DHT22;8175;49.326;12.690;2023-07-09T14:47:12;37.50;36.90
16140;DHT22;8175;49.326;12.690;2023-07-09T14:49:40;37.00;36.60
16140;DHT22;8175;49.326;12.690;2023-07-09T14:52:12;37.60;35.80
16140;DHT22;8175;49.326;12.690;2023-07-09T14:54:38;37.70;34.00
16140;DHT22;8175;49.326;12.690;2023-07-09T14:57:11;37.40;34.20
16140;DHT22;8175;49.326;12.690;2023-07-09T14:59:41;36.40;36.20
16140;DHT22;8175;49.326;12.690;2023-07-09T15:05:00;34.60;37.20
16140;DHT22;8175;49.326;12.690;2023-07-09T15:07:26;34.20;37.30
16140;DHT22;8175;49.326;12.690;2023-07-09T15:09:56;34.20;40.70
16140;DHT22;8175;49.326;12.690;2023-07-09T15:12:28;34.60;40.40
16140;DHT22;8175;49.326;12.690;2023-07-09T15:17:41;34.60;40.90
16140;DHT22;8175;49.326;12.690;2023-07-09T15:20:18;33.80;41.00
16140;DHT22;8175;49.326;12.690;2023-07-09T15:22:45;33.90;41.80
16140;DHT22;8175;49.326;12.690;2023-07-09T15:25:23;34.10;44.30
16140;DHT22;8175;49.326;12.690;2023-07-09T15:27:50;34.30;42.30
16140;DHT22;8175;49.326;12.690;2023-07-09T15:30:21;34.80;43.60
16140;DHT22;8175;49.326;12.690;2023-07-09T15:32:48;35.00;41.50
16140;DHT22;8175;49.326;12.690;2023-07-09T15:35:17;34.70;40.80
16140;DHT22;8175;49.326;12.690;2023-07-09T15:37:44;33.70;39.90
16140;DHT22;8175;49.326;12.690;2023-07-09T15:40:20;33.50;44.20
16140;DHT22;8175;49.326;12.690;2023-07-09T15:42:52;34.10;41.40
16140;DHT22;8175;49.326;12.690;2023-07-09T15:45:18;34.00;38.90
16140;DHT22;8175;49.326;12.690;2023-07-09T15:47:45;33.80;40.40
16140;DHT22;8175;49.326;12.690;2023-07-09T15:52:46;33.40;43.20
16140;DHT22;8175;49.326;12.690;2023-07-09T15:55:21;32.70;42.80
16140;DHT22;8175;49.326;12.690;2023-07-09T15:57:50;32.10;43.40
16140;DHT22;8175;49.326;12.690;2023-07-09T16:00:19;31.70;43.90
16140;DHT22;8175;49.326;12.690;2023-07-09T16:02:45;31.60;47.10
16140;DHT22;8175;49.326;12.690;2023-07-09T16:07:42;31.50;48.20
16140;DHT22;8175;49.326;12.690;2023-07-09T16:10:08;31.30;46.90
16140;DHT22;8175;49.326;12.690;2023-07-09T16:12:34;31.20;49.90
16140;DHT22;8175;49.326;12.690;2023-07-09T16:14:59;31.30;48.80
16140;DHT22;8175;49.326;12.690;2023-07-09T16:17:25;31.90;56.40
16140;DHT22;8175;49.326;12.690;2023-07-09T16:19:51;32.50;53.50
16140;DHT22;8175;49.326;12.690;2023-07-09T16:22:18;33.20;53.10
16140;DHT22;8175;49.326;12.690;2023-07-09T16:24:45;33.90;45.30
16140;DHT22;8175;49.326;12.690;2023-07-09T16:27:14;34.40;45.60
16140;DHT22;8175;49.326;12.690;2023-07-09T16:29:40;34.00;38.80
16140;DHT22;8175;49.326;12.690;2023-07-09T16:32:06;34.30;41.20
16140;DHT22;8175;49.326;12.690;2023-07-09T16:34:32;34.40;43.10
16140;DHT22;8175;49.326;12.690;2023-07-09T16:36:58;34.20;41.10
16140;DHT22;8175;49.326;12.690;2023-07-09T16:39:40;33.80;40.80
16140;DHT22;8175;49.326;12.690;2023-07-09T16:42:11;33.80;42.10
16140;DHT22;8175;49.326;12.690;2023-07-09T16:44:38;33.80;43.70
16140;DHT22;8175;49.326;12.690;2023-07-09T16:47:24;33.30;43.90
16140;DHT22;8175;49.326;12.690;2023-07-09T16:49:50;32.80;41.40
16140;DHT22;8175;49.326;12.690;2023-07-09T16:52:21;32.40;43.80
16140;DHT22;8175;49.326;12.690;2023-07-09T16:54:49;32.10;43.30
16140;DHT22;8175;49.326;12.690;2023-07-09T16:57:17;32.00;45.90
16140;DHT22;8175;49.326;12.690;2023-07-09T16:59:45;31.90;46.80
16140;DHT22;8175;49.326;12.690;2023-07-09T17:02:30;31.80;44.00
16140;DHT22;8175;49.326;12.690;2023-07-09T17:05:01;31.70;46.00
16140;DHT22;8175;49.326;12.690;2023-07-09T17:07:27;31.70;46.60
16140;DHT22;8175;49.326;12.690;2023-07-09T17:09:53;31.60;46.00
16140;DHT22;8175;49.326;12.690;2023-07-09T17:12:20;31.40;47.60
16140;DHT22;8175;49.326;12.690;2023-07-09T17:14:46;31.40;48.40
16140;DHT22;8175;49.326;12.690;2023-07-09T17:17:17;31.20;46.70
16140;DHT22;8175;49.326;12.690;2023-07-09T17:19:44;31.00;46.10
16140;DHT22;8175;49.326;12.690;2023-07-09T17:22:31;31.00;47.30
16140;DHT22;8175;49.326;12.690;2023-07-09T17:24:58;30.70;47.40
16140;DHT22;8175;49.326;12.690;2023-07-09T17:27:23;30.60;47.90
16140;DHT22;8175;49.326;12.690;2023-07-09T17:29:49;30.60;48.70
16140;DHT22;8175;49.326;12.690;2023-07-09T17:32:15;30.50;48.10
16140;DHT22;8175;49.326;12.690;2023-07-09T17:41:24;30.40;51.20
16140;DHT22;8175;49.326;12.690;2023-07-09T17:43:50;30.40;50.80
16140;DHT22;8175;49.326;12.690;2023-07-09T17:46:15;30.20;50.30
16140;DHT22;8175;49.326;12.690;2023-07-09T17:48:42;30.10;51.80
16140;DHT22;8175;49.326;12.690;2023-07-09T17:51:08;30.00;50.00
16140;DHT22;8175;49.326;12.690;2023-07-09T17:53:35;29.90;50.50
16140;DHT22;8175;49.326;12.690;2023-07-09T17:56:18;29.80;51.20
16140;DHT22;8175;49.326;12.690;2023-07-09T17:58:45;29.50;50.90
16140;DHT22;8175;49.326;12.690;2023-07-09T18:01:11;29.30;50.80
16140;DHT22;8175;49.326;12.690;2023-07-09T18:03:37;29.10;51.20
16140;DHT22;8175;49.326;12.690;2023-07-09T18:06:03;28.90;51.70
16140;DHT22;8175;49.326;12.690;2023-07-09T18:08:29;28.70;51.40
16140;DHT22;8175;49.326;12.690;2023-07-09T18:10:55;28.40;51.60
16140;DHT22;8175;49.326;12.690;2023-07-09T18:13:25;28.20;53.40
16140;DHT22;8175;49.326;12.690;2023-07-09T18:15:53;27.80;53.30
16140;DHT22;8175;49.326;12.690;2023-07-09T18:18:19;27.50;53.80
16140;DHT22;8175;49.326;12.690;2023-07-09T18:20:45;27.10;54.60
16140;DHT22;8175;49.326;12.690;2023-07-09T18:23:10;26.80;55.80
16140;DHT22;8175;49.326;12.690;2023-07-09T18:25:38;26.50;56.40
16140;DHT22;8175;49.326;12.690;2023-07-09T18:28:06;26.30;56.40
16140;DHT22;8175;49.326;12.690;2023-07-09T18:30:35;26.00;57.30
16140;DHT22;8175;49.326;12.690;2023-07-09T18:33:05;25.80;57.60
16140;DHT22;8175;49.326;12.690;2023-07-09T18:35:36;25.60;58.90
16140;DHT22;8175;49.326;12.690;2023-07-09T18:38:04;25.30;59.50
16140;DHT22;8175;49.326;12.690;2023-07-09T18:40:38;25.10;59.80
16140;DHT22;8175;49.326;12.690;2023-07-09T18:43:17;24.90;61.60
16140;DHT22;8175;49.326;12.690;2023-07-09T18:45:43;24.70;59.60
16140;DHT22;8175;49.326;12.690;2023-07-09T18:48:13;24.60;61.80
16140;DHT22;8175;49.326;12.690;2023-07-09T18:50:39;24.40;63.40
16140;DHT22;8175;49.326;12.690;2023-07-09T18:53:05;24.30;65.00
16140;DHT22;8175;49.326;12.690;2023-07-09T18:55:33;24.10;63.40
16140;DHT22;8175;49.326;12.690;2023-07-09T18:57:59;24.00;65.00
16140;DHT22;8175;49.326;12.690;2023-07-09T19:00:24;23.80;65.80
16140;DHT22;8175;49.326;12.690;2023-07-09T19:02:51;23.60;66.40
16140;DHT22;8175;49.326;12.690;2023-07-09T19:05:23;23.50;66.60
16140;DHT22;8175;49.326;12.690;2023-07-09T19:07:50;23.30;66.60
16140;DHT22;8175;49.326;12.690;2023-07-09T19:10:21;23.20;67.30
16140;DHT22;8175;49.326;12.690;2023-07-09T19:12:49;23.10;68.60
16140;DHT22;8175;49.326;12.690;2023-07-09T19:15:17;22.90;69.40
16140;DHT22;8175;49.326;12.690;2023-07-09T19:17:43;22.80;69.10
16140;DHT22;8175;49.326;12.690;2023-07-09T19:20:21;22.70;70.00
16140;DHT22;8175;49.326;12.690;2023-07-09T19:22:48;22.60;70.00
16140;DHT22;8175;49.326;12.690;2023-07-09T19:25:20;22.50;69.70
16140;DHT22;8175;49.326;12.690;2023-07-09T19:27:47;22.40;69.60
16140;DHT22;8175;49.326;12.690;2023-07-09T19:30:14;22.40;71.20